Terminal Aerodrome Forecast
Issued by NWS

Home | Current Version | Previous Version | Text Only | Print | Product List | Glossary On
Versions: 1 2 3 4 5 6 7 8 9 10 11 12 13 14 15 16 17 18 19 20 21 22 23 24
000
FTUS42 KJAX 301700
TAFVQQ
TAF
KVQQ 301728Z 3018/3118 32005KT P6SM VCSH FEW025 SCT035 BKN060
     FM302300 33004KT P6SM VCSH SCT020 BKN045
     FM310600 35006KT P6SM SCT015 BKN060
     FM311500 33008KT P6SM FEW040=

USA.gov is the U.S. government's official web portal to all federal, state and local government web resources and services.